Time;durP1;ratioP1;P1;durP2;ratioP2;P2;SDS_P1;SDS_P2;PMS_P1;PMS_P2;Temp;Humidity;BMP_temperature;BMP_pressure;BME280_temperature;BME280_humidity;BME280_pressure;Samples;Min_cycle;Max_cycle;Signal;HPM_P1;HPM_P2
2023/07/22 00:02:23;;;;;;;0.35;0.35;;;13.40;90.10;;;;;;5095683;28;20392;-86
2023/07/22 00:04:52;;;;;;;0.50;0.50;;;13.50;88.50;;;;;;5096800;28;20161;-86
2023/07/22 00:07:21;;;;;;;0.50;0.47;;;13.40;89.20;;;;;;5080467;28;20443;-86
2023/07/22 00:09:48;;;;;;;3.60;1.00;;;13.30;90.30;;;;;;5096560;28;20047;-86
2023/07/22 00:12:15;;;;;;;1.08;0.45;;;13.40;89.80;;;;;;5096841;27;20898;-86
2023/07/22 00:14:41;;;;;;;0.73;0.60;;;13.40;90.40;;;;;;5100001;27;20049;-86
2023/07/22 00:17:07;;;;;;;1.52;1.13;;;13.30;90.80;;;;;;5079193;28;20051;-86
2023/07/22 00:19:36;;;;;;;0.30;0.30;;;13.20;91.90;;;;;;5079822;28;20075;-87
2023/07/22 00:22:02;;;;;;;0.80;0.45;;;13.30;91.80;;;;;;5096461;28;20508;-86
2023/07/22 00:24:28;;;;;;;1.65;1.55;;;13.30;91.10;;;;;;5096326;28;20051;-86
2023/07/22 00:26:54;;;;;;;0.70;0.50;;;12.40;91.20;;;;;;5095384;27;20090;-86
2023/07/22 00:29:20;;;;;;;0.73;0.52;;;13.30;91.90;;;;;;5117135;27;20079;-86
2023/07/22 00:31:49;;;;;;;1.60;0.87;;;13.20;89.90;;;;;;5099723;27;20392;-86
2023/07/22 00:34:15;;;;;;;0.50;0.50;;;13.10;88.60;;;;;;5116932;27;20077;-87
2023/07/22 00:36:40;;;;;;;1.00;0.68;;;13.00;89.10;;;;;;5116541;27;20122;-86
2023/07/22 00:39:06;;;;;;;0.77;0.60;;;13.10;91.60;;;;;;5099914;27;20393;-86
2023/07/22 00:41:32;;;;;;;0.60;0.53;;;13.10;90.50;;;;;;5109886;28;20051;-86
2023/07/22 00:43:58;;;;;;;0.65;0.47;;;13.10;90.80;;;;;;5123013;27;20439;-86
2023/07/22 00:46:23;;;;;;;1.00;0.90;;;13.10;91.80;;;;;;5062922;28;20043;-86
2023/07/22 00:48:50;;;;;;;0.33;0.33;;;13.00;91.40;;;;;;5079089;28;20080;-86
2023/07/22 00:51:16;;;;;;;0.52;0.52;;;12.90;90.80;;;;;;5079211;28;20285;-86
2023/07/22 00:53:42;;;;;;;0.65;0.30;;;12.90;91.20;;;;;;5079512;28;20048;-87
2023/07/22 00:56:08;;;;;;;0.23;0.23;;;12.90;91.50;;;;;;5074247;28;20066;-86
2023/07/22 00:58:34;;;;;;;2.55;0.90;;;12.90;91.60;;;;;;5095966;28;20047;-86
2023/07/22 01:01:00;;;;;;;2.05;0.50;;;12.80;91.40;;;;;;5095372;28;20051;-86
2023/07/22 01:03:26;;;;;;;1.33;0.60;;;12.80;90.50;;;;;;5112411;28;20044;-86
2023/07/22 01:05:54;;;;;;;0.25;0.25;;;12.70;90.80;;;;;;5078769;28;20051;-86
2023/07/22 01:08:20;;;;;;;1.08;0.30;;;12.70;91.80;;;;;;5094099;28;20047;-86
2023/07/22 01:10:46;;;;;;;0.40;0.40;;;11.80;91.30;;;;;;5078817;28;20079;-86
2023/07/22 01:13:12;;;;;;;0.53;0.53;;;12.70;93.00;;;;;;5115406;27;20120;-86
2023/07/22 01:15:38;;;;;;;1.03;0.63;;;12.70;93.10;;;;;;5114980;27;20296;-86
2023/07/22 01:18:04;;;;;;;0.70;0.50;;;12.10;92.60;;;;;;5111584;27;20332;-86
2023/07/22 01:20:31;;;;;;;0.63;0.60;;;12.60;93.20;;;;;;5078578;28;20104;-86
2023/07/22 01:22:57;;;;;;;2.08;1.33;;;12.60;91.50;;;;;;5108400;27;20043;-86
2023/07/22 01:25:23;;;;;;;0.70;0.43;;;12.60;91.90;;;;;;5116280;27;20054;-86
2023/07/22 01:27:53;;;;;;;1.05;0.77;;;12.50;92.40;;;;;;5115659;27;20390;-86
2023/07/22 01:30:19;;;;;;;0.52;0.50;;;12.60;92.60;;;;;;5116120;27;20058;-86
2023/07/22 01:32:46;;;;;;;0.40;0.40;;;12.50;92.60;;;;;;5098361;27;20134;-92
2023/07/22 01:35:12;;;;;;;0.88;0.65;;;12.50;93.00;;;;;;5116059;27;20047;-86
2023/07/22 01:37:38;;;;;;;5.05;0.75;;;12.50;92.60;;;;;;5099055;27;20047;-86
2023/07/22 01:40:14;;;;;;;0.80;0.40;;;12.40;92.60;;;;;;5113929;27;20077;-86
2023/07/22 01:42:41;;;;;;;0.50;0.50;;;12.60;92.00;;;;;;5112246;28;20048;-86
2023/07/22 01:45:08;;;;;;;0.70;0.70;;;12.40;91.50;;;;;;5112362;28;20734;-85
2023/07/22 01:47:37;;;;;;;;;;;11.50;91.10;;;;;;5108803;28;20055;-85
2023/07/22 01:50:06;;;;;;;0.73;0.60;;;12.40;93.40;;;;;;5111930;28;19942;-86
2023/07/22 01:52:32;;;;;;;0.30;0.30;;;12.40;92.30;;;;;;5079110;28;20051;-86
2023/07/22 01:54:57;;;;;;;0.40;0.20;;;12.40;92.20;;;;;;5101368;28;20036;-86
2023/07/22 01:57:23;;;;;;;0.53;0.53;;;12.30;90.50;;;;;;5075287;28;20289;-86
2023/07/22 01:59:49;;;;;;;0.90;0.90;;;12.20;89.70;;;;;;5094069;28;20516;-91
2023/07/22 02:02:14;;;;;;;0.30;0.30;;;12.20;90.30;;;;;;5073472;28;20040;-86
2023/07/22 02:04:40;;;;;;;1.80;0.80;;;12.20;91.30;;;;;;5075049;28;20094;-86
2023/07/22 02:07:08;;;;;;;0.40;0.40;;;12.10;92.50;;;;;;5082617;28;20044;-86
2023/07/22 02:09:41;;;;;;;0.63;0.50;;;12.10;92.40;;;;;;5102187;28;20545;-87
2023/07/22 02:12:08;;;;;;;0.50;0.50;;;12.20;92.70;;;;;;5074448;28;20047;-86
2023/07/22 02:14:36;;;;;;;0.50;0.50;;;12.10;92.70;;;;;;5091468;28;20563;-88
2023/07/22 02:17:02;;;;;;;0.98;0.55;;;12.70;93.00;;;;;;5090594;28;20402;-86
2023/07/22 02:19:29;;;;;;;0.50;0.50;;;12.00;91.20;;;;;;5091735;28;20044;-86
2023/07/22 02:21:55;;;;;;;;;;;12.00;90.50;;;;;;5091352;28;20320;-86
2023/07/22 02:24:21;;;;;;;0.95;0.43;;;11.90;94.20;;;;;;5074756;28;20350;-86
2023/07/22 02:26:47;;;;;;;;;;;11.90;93.90;;;;;;5075043;28;20044;-86
2023/07/22 02:29:13;;;;;;;0.50;0.50;;;11.90;96.60;;;;;;5091090;28;20323;-86
2023/07/22 02:31:41;;;;;;;0.83;0.33;;;11.90;95.30;;;;;;5076981;28;20521;-86
2023/07/22 02:34:06;;;;;;;0.50;0.50;;;12.00;95.70;;;;;;5111564;28;20039;-86
2023/07/22 02:36:32;;;;;;;1.17;0.80;;;12.00;95.90;;;;;;5074879;28;20123;-86
2023/07/22 02:39:01;;;;;;;2.03;1.03;;;11.90;96.70;;;;;;5091360;28;20080;-86
2023/07/22 02:41:27;;;;;;;0.30;0.30;;;11.30;96.70;;;;;;5096233;28;20060;-88
2023/07/22 02:43:52;;;;;;;2.23;0.67;;;12.00;96.60;;;;;;5077856;28;20138;-89
2023/07/22 02:46:18;;;;;;;0.97;0.47;;;12.10;96.90;;;;;;5111742;28;20130;-86
2023/07/22 02:48:44;;;;;;;0.47;0.47;;;12.00;96.00;;;;;;5078998;28;20043;-86
2023/07/22 02:51:10;;;;;;;0.75;0.45;;;12.00;95.50;;;;;;5098512;28;20062;-86
2023/07/22 02:53:37;;;;;;;0.45;0.45;;;12.00;96.20;;;;;;5098870;28;20055;-86
2023/07/22 02:56:11;;;;;;;1.42;0.82;;;11.90;96.60;;;;;;5115427;28;20435;-86
2023/07/22 02:58:36;;;;;;;0.70;0.70;;;11.90;95.50;;;;;;5097132;28;20044;-86
2023/07/22 03:01:04;;;;;;;0.47;0.43;;;11.90;95.30;;;;;;5094462;28;20051;-86
2023/07/22 03:03:32;;;;;;;0.80;0.80;;;11.90;94.90;;;;;;5095477;28;20102;-86
2023/07/22 03:05:59;;;;;;;0.85;0.55;;;11.90;95.10;;;;;;5094773;28;20055;-87
2023/07/22 03:08:28;;;;;;;0.57;0.35;;;11.90;94.40;;;;;;5061520;28;20498;-86
2023/07/22 03:10:53;;;;;;;0.95;0.50;;;11.80;94.40;;;;;;5089893;28;20051;-86
2023/07/22 03:13:19;;;;;;;0.40;0.40;;;11.80;94.80;;;;;;5080114;28;20048;-86
2023/07/22 03:15:45;;;;;;;0.87;0.80;;;11.80;94.50;;;;;;5045076;28;20044;-86
2023/07/22 03:18:13;;;;;;;1.03;0.50;;;11.80;94.40;;;;;;5078591;28;20494;-86
2023/07/22 03:20:39;;;;;;;0.52;0.52;;;10.60;93.80;;;;;;5106081;28;20296;-86
2023/07/22 03:23:09;;;;;;;0.20;0.20;;;11.80;94.60;;;;;;5096826;28;20484;-86
2023/07/22 03:25:35;;;;;;;0.20;0.20;;;11.70;94.30;;;;;;5100589;28;20097;-87
2023/07/22 03:28:06;;;;;;;0.55;0.50;;;11.60;94.50;;;;;;5101973;28;20071;-88
2023/07/22 03:30:33;;;;;;;1.45;0.82;;;11.70;94.90;;;;;;5088459;28;20048;-86
2023/07/22 03:33:00;;;;;;;2.05;0.63;;;11.60;94.80;;;;;;5105515;28;20047;-87
2023/07/22 03:35:28;;;;;;;1.20;1.10;;;11.60;95.60;;;;;;5085529;28;20036;-86
2023/07/22 03:37:55;;;;;;;0.60;0.52;;;11.60;96.10;;;;;;5103751;28;20431;-86
2023/07/22 03:40:28;;;;;;;0.60;0.50;;;11.60;96.60;;;;;;5100163;28;20044;-86
2023/07/22 03:42:55;;;;;;;1.23;0.50;;;11.70;97.00;;;;;;5107619;28;20047;-86
2023/07/22 03:45:21;;;;;;;0.57;0.55;;;11.70;97.10;;;;;;5097725;28;20138;-86
2023/07/22 03:47:58;;;;;;;0.75;0.70;;;11.60;97.00;;;;;;5090236;28;20102;-90
2023/07/22 03:50:24;;;;;;;1.50;0.60;;;11.70;98.10;;;;;;5096717;28;20056;-86
2023/07/22 03:52:52;;;;;;;0.55;0.55;;;11.20;98.00;;;;;;5096338;28;20051;-86
2023/07/22 03:55:21;;;;;;;0.65;0.60;;;11.70;97.90;;;;;;5108545;28;20051;-87
2023/07/22 03:57:46;;;;;;;1.25;0.55;;;11.70;98.20;;;;;;5089750;28;20178;-86
2023/07/22 04:00:12;;;;;;;1.93;1.60;;;11.70;98.90;;;;;;5087014;28;20123;-86
2023/07/22 04:02:38;;;;;;;0.40;0.40;;;11.80;99.80;;;;;;5107376;28;20044;-86
2023/07/22 04:05:04;;;;;;;0.90;0.82;;;11.80;99.90;;;;;;5085908;28;20105;-91
2023/07/22 04:07:30;;;;;;;0.40;0.40;;;11.90;99.70;;;;;;5098825;28;20101;-87
2023/07/22 04:09:56;;;;;;;1.03;0.80;;;12.00;99.90;;;;;;5104606;28;20040;-86
2023/07/22 04:12:22;;;;;;;0.40;0.40;;;11.90;99.90;;;;;;5104424;28;20036;-86
2023/07/22 04:14:47;;;;;;;1.60;0.70;;;12.00;99.70;;;;;;5102088;28;20118;-86
2023/07/22 04:17:15;;;;;;;0.53;0.53;;;12.00;99.00;;;;;;5107056;28;20044;-86
2023/07/22 04:19:43;;;;;;;1.20;0.82;;;12.10;99.80;;;;;;5087973;28;20054;-85
2023/07/22 04:22:09;;;;;;;1.13;0.50;;;12.20;99.60;;;;;;5093197;28;20040;-86
2023/07/22 04:24:35;;;;;;;1.47;0.70;;;12.10;99.90;;;;;;5095959;28;20131;-86
2023/07/22 04:27:01;;;;;;;0.77;0.77;;;12.20;99.90;;;;;;5076486;28;20079;-85
2023/07/22 04:29:27;;;;;;;0.50;0.50;;;12.20;99.80;;;;;;5076410;28;20282;-86
2023/07/22 04:32:00;;;;;;;1.10;0.60;;;12.30;99.80;;;;;;5079021;28;20092;-86
2023/07/22 04:34:32;;;;;;;3.58;1.15;;;12.30;99.90;;;;;;5114588;28;20281;-86
2023/07/22 04:36:58;;;;;;;1.00;0.80;;;12.40;99.90;;;;;;5097032;28;20086;-86
2023/07/22 04:39:24;;;;;;;1.50;0.88;;;12.40;99.90;;;;;;5079006;28;20130;-86
2023/07/22 04:41:51;;;;;;;0.65;0.60;;;12.40;99.90;;;;;;5096325;28;20193;-86
2023/07/22 04:44:17;;;;;;;1.13;0.65;;;12.40;99.90;;;;;;5109979;28;20051;-86
2023/07/22 04:46:43;;;;;;;;;;;12.50;99.90;;;;;;5098221;28;20044;-86
2023/07/22 04:49:08;;;;;;;1.92;1.10;;;12.50;99.90;;;;;;5076233;28;20423;-86
2023/07/22 04:51:34;;;;;;;0.67;0.57;;;12.50;99.90;;;;;;5076028;28;20044;-86
2023/07/22 04:54:00;;;;;;;0.83;0.83;;;12.50;99.90;;;;;;5076019;28;20044;-86
2023/07/22 04:56:25;;;;;;;1.90;1.00;;;12.50;99.90;;;;;;5084241;28;20074;-86
2023/07/22 04:58:51;;;;;;;0.83;0.50;;;12.50;99.90;;;;;;5059409;28;20093;-86
2023/07/22 05:01:17;;;;;;;2.57;1.00;;;12.50;99.90;;;;;;5076539;28;20162;-86
2023/07/22 05:03:43;;;;;;;0.77;0.77;;;12.60;99.90;;;;;;5076049;28;20093;-86
2023/07/22 05:06:08;;;;;;;0.70;0.53;;;12.60;99.90;;;;;;5076280;28;20048;-86
2023/07/22 05:08:34;;;;;;;1.07;0.73;;;12.70;99.90;;;;;;5075577;28;20768;-86
2023/07/22 05:11:00;;;;;;;1.40;0.80;;;12.60;99.90;;;;;;5075653;28;20048;-86
2023/07/22 05:13:26;;;;;;;1.00;1.00;;;12.70;99.90;;;;;;5085437;28;20083;-85
2023/07/22 05:15:51;;;;;;;0.80;0.57;;;12.70;99.90;;;;;;5075595;28;20489;-85
2023/07/22 05:18:17;;;;;;;2.40;1.67;;;12.80;99.90;;;;;;5102959;28;20131;-85
2023/07/22 05:20:43;;;;;;;0.80;0.80;;;12.80;99.90;;;;;;5078634;28;20054;-85
2023/07/22 05:23:08;;;;;;;2.00;0.83;;;12.80;99.90;;;;;;5092643;28;20047;-85
2023/07/22 05:25:34;;;;;;;1.10;0.70;;;12.80;99.90;;;;;;5075089;28;20047;-85
2023/07/22 05:28:00;;;;;;;1.20;1.03;;;12.80;99.90;;;;;;5100131;28;20111;-85
2023/07/22 05:30:25;;;;;;;1.30;0.63;;;12.90;99.90;;;;;;5078048;28;20052;-86
2023/07/22 05:32:54;;;;;;;0.70;0.70;;;12.90;99.90;;;;;;5103931;28;20040;-85
2023/07/22 05:35:20;;;;;;;2.00;0.90;;;12.90;99.90;;;;;;5101239;28;20482;-86
2023/07/22 05:37:46;;;;;;;0.97;0.60;;;13.00;99.90;;;;;;5092065;28;20063;-85
2023/07/22 05:40:11;;;;;;;0.80;0.80;;;13.00;99.90;;;;;;5092123;28;20051;-85
2023/07/22 05:42:37;;;;;;;1.30;0.80;;;13.10;99.90;;;;;;5099991;28;20156;-85
2023/07/22 05:45:03;;;;;;;0.77;0.40;;;13.10;99.90;;;;;;5113516;28;20485;-85
2023/07/22 05:47:29;;;;;;;1.55;0.95;;;13.10;99.90;;;;;;5095163;28;20285;-85
2023/07/22 05:49:55;;;;;;;0.67;0.67;;;13.20;99.90;;;;;;5112869;28;20047;-85
2023/07/22 05:52:20;;;;;;;0.40;0.40;;;13.20;99.90;;;;;;5095109;28;20051;-86
2023/07/22 05:54:46;;;;;;;1.97;0.87;;;13.20;99.90;;;;;;5112672;28;20130;-85
2023/07/22 05:57:12;;;;;;;3.17;1.13;;;13.20;99.90;;;;;;5062966;28;20109;-85
2023/07/22 05:59:39;;;;;;;0.77;0.77;;;13.20;99.90;;;;;;5058343;28;20048;-85
2023/07/22 06:02:05;;;;;;;1.52;0.43;;;13.20;99.90;;;;;;5101167;28;20051;-85
2023/07/22 06:04:31;;;;;;;;;;;13.30;99.90;;;;;;5096488;28;20138;-86
2023/07/22 06:06:57;;;;;;;1.38;1.27;;;13.30;99.90;;;;;;5113207;28;20400;-84
2023/07/22 06:09:23;;;;;;;0.98;0.60;;;13.30;99.90;;;;;;5111939;28;20073;-86
2023/07/22 06:11:49;;;;;;;1.67;0.80;;;13.40;99.90;;;;;;5078523;28;20425;-85
2023/07/22 06:14:14;;;;;;;1.57;0.80;;;13.40;99.90;;;;;;5058258;28;20301;-85
2023/07/22 06:16:40;;;;;;;0.50;0.50;;;13.40;99.90;;;;;;5074961;28;20044;-85
2023/07/22 06:19:06;;;;;;;0.83;0.83;;;13.50;99.90;;;;;;5075075;28;20478;-85
2023/07/22 06:21:31;;;;;;;0.83;0.50;;;13.60;99.90;;;;;;5074888;28;20082;-85
2023/07/22 06:23:57;;;;;;;2.03;1.53;;;13.70;99.90;;;;;;5076519;28;20154;-85
2023/07/22 06:26:23;;;;;;;0.87;0.70;;;13.70;99.90;;;;;;5096399;28;20055;-93
2023/07/22 06:28:48;;;;;;;2.27;1.20;;;13.80;99.90;;;;;;5108186;28;20044;-85
2023/07/22 06:31:14;;;;;;;1.80;0.90;;;13.80;99.90;;;;;;5100975;28;20048;-85
2023/07/22 06:33:40;;;;;;;0.80;0.77;;;13.90;99.90;;;;;;5094813;28;20080;-85
2023/07/22 06:36:05;;;;;;;1.20;0.80;;;13.90;99.90;;;;;;5095704;28;20051;-85
2023/07/22 06:38:31;;;;;;;2.50;1.50;;;14.00;99.90;;;;;;5090260;28;20069;-83
2023/07/22 06:40:57;;;;;;;1.00;0.93;;;14.20;99.90;;;;;;5107721;28;20040;-83
2023/07/22 06:43:23;;;;;;;0.90;0.90;;;14.40;99.90;;;;;;5101804;27;20042;-83
2023/07/22 06:45:48;;;;;;;1.67;0.80;;;14.60;99.90;;;;;;5129325;27;20039;-83
2023/07/22 06:48:14;;;;;;;1.83;1.23;;;14.70;99.90;;;;;;5124070;27;20387;-86
2023/07/22 06:50:40;;;;;;;1.57;0.90;;;14.80;99.90;;;;;;5084466;28;20104;-85
2023/07/22 06:53:06;;;;;;;0.60;0.60;;;14.80;99.90;;;;;;5107316;27;20119;-83
2023/07/22 06:55:33;;;;;;;1.30;1.23;;;14.80;99.90;;;;;;5107692;27;20073;-85
2023/07/22 06:57:59;;;;;;;0.70;0.68;;;14.90;99.90;;;;;;5126350;27;20040;-86
2023/07/22 07:00:25;;;;;;;1.58;1.27;;;14.90;99.90;;;;;;5106994;28;20046;-85
2023/07/22 07:02:51;;;;;;;1.47;0.90;;;15.00;98.50;;;;;;5086802;27;20043;-85
2023/07/22 07:05:17;;;;;;;1.52;0.95;;;14.90;96.70;;;;;;5078731;27;20036;-85
2023/07/22 07:07:43;;;;;;;1.50;1.40;;;14.90;93.10;;;;;;5095066;27;20036;-86
2023/07/22 07:10:09;;;;;;;0.73;0.73;;;14.90;92.00;;;;;;5053207;27;20050;-83
2023/07/22 07:12:34;;;;;;;0.98;0.85;;;14.90;94.30;;;;;;5109111;27;20126;-85
2023/07/22 07:15:00;;;;;;;2.00;0.93;;;14.90;92.30;;;;;;5092826;27;20533;-85
2023/07/22 07:17:27;;;;;;;1.00;0.80;;;14.90;91.70;;;;;;5085987;28;20281;-84
2023/07/22 07:19:52;;;;;;;1.92;1.13;;;14.90;91.00;;;;;;5104694;27;20050;-87
2023/07/22 07:22:18;;;;;;;1.17;0.70;;;14.90;95.60;;;;;;5090853;27;20040;-82
2023/07/22 07:24:44;;;;;;;1.50;1.17;;;15.00;95.40;;;;;;5128272;27;20168;-86
2023/07/22 07:27:09;;;;;;;1.63;0.77;;;15.00;95.10;;;;;;5104855;28;20362;-84
2023/07/22 07:29:35;;;;;;;0.60;0.60;;;15.10;95.00;;;;;;5125488;27;20098;-85
2023/07/22 07:32:01;;;;;;;0.70;0.63;;;15.10;94.90;;;;;;5101002;28;20050;-83
2023/07/22 07:34:26;;;;;;;1.60;0.95;;;15.20;93.30;;;;;;5125913;27;20180;-86
2023/07/22 07:36:52;;;;;;;1.23;1.13;;;15.20;90.70;;;;;;5123927;27;20043;-84
2023/07/22 07:39:18;;;;;;;0.70;0.70;;;15.30;94.40;;;;;;5111886;27;20041;-84
2023/07/22 07:41:43;;;;;;;1.07;0.57;;;15.40;94.30;;;;;;5123945;27;20097;-84
2023/07/22 07:44:09;;;;;;;1.20;0.80;;;15.50;91.70;;;;;;5099371;28;20054;-84
2023/07/22 07:46:35;;;;;;;2.87;1.13;;;15.60;92.20;;;;;;5124517;27;20046;-84
2023/07/22 07:49:01;;;;;;;1.03;0.93;;;15.80;92.40;;;;;;5090416;27;20051;-84
2023/07/22 07:51:29;;;;;;;1.80;1.20;;;15.90;91.10;;;;;;5104254;28;20853;-85
2023/07/22 07:53:56;;;;;;;0.60;0.60;;;16.10;85.50;;;;;;5107131;27;20453;-84
2023/07/22 07:56:22;;;;;;;;;;;16.20;75.80;;;;;;5109790;28;20043;-84
2023/07/22 07:58:49;;;;;;;0.35;0.35;;;16.30;77.30;;;;;;5105053;28;20296;-84
2023/07/22 08:01:16;;;;;;;1.55;0.93;;;16.30;65.80;;;;;;5104867;27;20042;-86
2023/07/22 08:03:42;;;;;;;0.65;0.65;;;16.40;44.50;;;;;;5103079;27;20513;-85
2023/07/22 08:06:09;;;;;;;0.68;0.60;;;16.40;41.60;;;;;;5082688;28;20386;-84
2023/07/22 08:08:36;;;;;;;1.25;0.85;;;16.50;31.10;;;;;;5081253;28;20051;-84
2023/07/22 08:11:03;;;;;;;1.23;0.90;;;16.50;20.80;;;;;;5097977;28;20087;-84
2023/07/22 08:14:05;;;;;;;0.68;0.63;;;16.60;11.60;;;;;;5108808;28;20497;-84
2023/07/22 08:23:39;;;;;;;1.17;1.00;;;16.60;1.00;;;;;;5096743;27;20055;-84
2023/07/22 08:26:05;;;;;;;1.70;1.60;;;16.60;1.00;;;;;;5120087;27;20043;-82
2023/07/22 08:28:32;;;;;;;0.73;0.60;;;16.60;1.00;;;;;;5083551;28;20339;-82
2023/07/22 08:30:58;;;;;;;;;;;16.70;1.00;;;;;;5090958;27;20039;-83
2023/07/22 08:33:24;;;;;;;0.90;0.90;;;16.70;1.00;;;;;;5119492;27;20286;-82
2023/07/22 08:35:53;;;;;;;0.70;0.68;;;16.70;1.00;;;;;;5108673;28;20038;-84
2023/07/22 08:38:18;;;;;;;1.33;1.02;;;16.70;1.00;;;;;;5092707;27;20047;-83
2023/07/22 08:40:48;;;;;;;3.23;1.20;;;16.70;1.00;;;;;;5116676;27;20047;-83
2023/07/22 08:43:14;;;;;;;1.38;0.90;;;16.60;1.00;;;;;;5095080;28;20368;-83
2023/07/22 08:45:41;;;;;;;2.13;1.05;;;16.60;1.00;;;;;;5093511;28;20051;-81
2023/07/22 08:48:09;;;;;;;0.98;0.98;;;16.60;1.00;;;;;;5109440;28;20136;-82
2023/07/22 08:50:44;;;;;;;0.60;0.50;;;16.50;1.00;;;;;;5113937;28;20477;-81
2023/07/22 08:53:12;;;;;;;1.38;0.80;;;16.50;1.00;;;;;;5100185;28;20105;-84
2023/07/22 08:55:41;;;;;;;2.40;1.05;;;16.50;1.00;;;;;;5096787;28;20051;-86
2023/07/22 08:58:11;;;;;;;1.58;0.82;;;16.40;1.00;;;;;;5072805;28;20052;-83
2023/07/22 09:00:38;;;;;;;0.43;0.43;;;16.40;1.00;;;;;;5108794;28;20036;-84
2023/07/22 09:03:05;;;;;;;0.77;0.77;;;16.30;1.00;;;;;;5094020;28;20059;-82
2023/07/22 09:05:35;;;;;;;0.95;0.80;;;16.30;1.00;;;;;;5098243;28;20162;-82
2023/07/22 09:08:06;;;;;;;2.03;1.30;;;16.30;1.00;;;;;;5099264;28;20127;-83
2023/07/22 09:10:32;;;;;;;0.85;0.80;;;16.30;1.00;;;;;;5102096;28;20047;-82
2023/07/22 09:13:00;;;;;;;1.10;1.00;;;16.30;9.00;;;;;;5083633;28;20169;-83
2023/07/22 09:15:26;;;;;;;1.05;0.50;;;16.30;9.00;;;;;;5096052;28;20054;-83
2023/07/22 09:17:52;;;;;;;1.30;0.80;;;16.20;11.50;;;;;;5100517;28;20086;-81
2023/07/22 09:20:20;;;;;;;0.90;0.90;;;16.20;20.90;;;;;;5105264;28;20035;-82
2023/07/22 09:22:50;;;;;;;0.65;0.65;;;16.20;36.10;;;;;;5100704;28;20032;-84
2023/07/22 09:25:19;;;;;;;0.50;0.50;;;16.20;42.30;;;;;;5076810;28;20051;-86
2023/07/22 09:27:49;;;;;;;1.50;1.05;;;16.20;34.20;;;;;;5083586;28;20040;-87
2023/07/22 09:30:26;;;;;;;0.63;0.63;;;16.10;30.40;;;;;;5079410;28;20397;-86
2023/07/22 09:32:57;;;;;;;0.40;0.40;;;16.10;44.70;;;;;;5074454;28;20039;-86
2023/07/22 09:35:28;;;;;;;1.95;0.98;;;16.10;40.60;;;;;;5086854;28;20074;-87
2023/07/22 09:37:54;;;;;;;1.23;0.85;;;16.10;41.90;;;;;;5095063;28;20053;-87
2023/07/22 09:40:22;;;;;;;1.00;0.63;;;16.20;34.70;;;;;;5076984;28;20093;-87
2023/07/22 09:43:02;;;;;;;0.95;0.95;;;16.30;30.00;;;;;;5094626;28;20120;-87
2023/07/22 09:45:29;;;;;;;0.88;0.60;;;16.30;46.90;;;;;;5107089;28;20130;-88
2023/07/22 09:47:56;;;;;;;0.75;0.65;;;17.10;30.30;;;;;;5058341;28;20048;-87
2023/07/22 09:50:22;;;;;;;;;;;16.40;37.30;;;;;;5097701;28;20080;-87
2023/07/22 09:52:53;;;;;;;1.55;1.08;;;16.50;52.60;;;;;;5082157;28;19919;-86
2023/07/22 09:55:25;;;;;;;0.55;0.55;;;16.50;33.80;;;;;;5109645;28;20043;-83
2023/07/22 09:57:54;;;;;;;1.88;0.90;;;16.60;29.50;;;;;;5110123;28;20094;-86
2023/07/22 10:00:22;;;;;;;0.68;0.68;;;16.50;29.60;;;;;;5100844;28;20087;-85
2023/07/22 10:02:52;;;;;;;1.85;0.70;;;16.60;22.80;;;;;;5078825;28;20126;-86
2023/07/22 10:05:21;;;;;;;0.52;0.52;;;16.70;4.20;;;;;;5095984;28;20047;-86
2023/07/22 10:07:51;;;;;;;1.17;0.50;;;16.70;1.00;;;;;;5099549;28;20050;-87
2023/07/22 10:10:25;;;;;;;0.50;0.50;;;16.70;1.00;;;;;;5074783;28;20375;-87
2023/07/22 10:12:53;;;;;;;1.25;0.93;;;16.70;1.00;;;;;;5087475;28;20036;-86
2023/07/22 10:15:19;;;;;;;0.43;0.38;;;16.80;1.00;;;;;;5098590;28;20048;-88
2023/07/22 10:17:45;;;;;;;0.45;0.45;;;16.80;1.00;;;;;;5079316;28;20056;-86
2023/07/22 10:20:15;;;;;;;0.47;0.47;;;16.70;1.00;;;;;;5078392;28;20060;-85
2023/07/22 10:22:46;;;;;;;0.60;0.43;;;16.70;1.00;;;;;;5112079;28;20070;-86
2023/07/22 10:25:14;;;;;;;0.22;0.22;;;16.70;1.00;;;;;;5100769;28;20359;-85
2023/07/22 10:27:44;;;;;;;0.60;0.60;;;16.70;1.00;;;;;;5102104;28;20079;-86
2023/07/22 10:30:11;;;;;;;0.28;0.20;;;16.70;1.00;;;;;;5108395;28;20040;-86
2023/07/22 10:32:44;;;;;;;0.40;0.40;;;16.60;1.00;;;;;;5078130;28;20567;-86
2023/07/22 10:35:33;;;;;;;0.10;0.10;;;16.50;1.00;;;;;;5077814;28;20040;-86
2023/07/22 10:38:17;;;;;;;0.28;0.28;;;16.50;1.00;;;;;;5085962;28;20130;-86
2023/07/22 10:40:50;;;;;;;0.40;0.32;;;16.40;1.00;;;;;;5087261;28;20039;-84
2023/07/22 10:43:18;;;;;;;0.20;0.20;;;16.40;1.00;;;;;;5092546;28;20777;-86
2023/07/22 10:45:50;;;;;;;0.63;0.63;;;16.30;1.00;;;;;;5084465;28;20413;-86
2023/07/22 10:48:16;;;;;;;0.30;0.30;;;16.30;1.00;;;;;;5105581;28;20040;-86
2023/07/22 10:50:51;;;;;;;1.02;0.70;;;16.30;1.00;;;;;;5086771;28;20123;-86
2023/07/22 10:53:29;;;;;;;0.30;0.30;;;16.30;1.00;;;;;;5084596;28;20554;-87
2023/07/22 10:56:15;;;;;;;0.30;0.30;;;16.20;1.00;;;;;;5083038;28;20040;-86
2023/07/22 10:58:46;;;;;;;0.65;0.20;;;16.20;1.00;;;;;;5100620;28;20467;-86
2023/07/22 11:01:30;;;;;;;1.17;1.08;;;16.20;4.10;;;;;;5084606;28;20044;-86
2023/07/22 11:04:14;;;;;;;0.77;0.40;;;16.10;13.10;;;;;;5106158;28;20474;-86
2023/07/22 11:06:55;;;;;;;0.40;0.40;;;16.00;27.60;;;;;;5103764;28;20453;-86
2023/07/22 11:09:33;;;;;;;0.40;0.40;;;15.10;50.90;;;;;;5107709;28;20079;-87
2023/07/22 11:12:07;;;;;;;0.47;0.47;;;16.00;72.30;;;;;;5082203;28;20047;-86
2023/07/22 11:14:53;;;;;;;0.77;0.38;;;15.90;84.20;;;;;;5094762;28;20044;-86
2023/07/22 11:17:29;;;;;;;0.40;0.40;;;15.70;86.90;;;;;;5077449;28;20054;-85
2023/07/22 11:19:56;;;;;;;0.85;0.65;;;15.70;86.90;;;;;;5078139;28;20048;-85
2023/07/22 11:22:22;;;;;;;0.93;0.63;;;15.70;91.60;;;;;;5094085;28;20044;-86
2023/07/22 11:24:48;;;;;;;2.03;1.10;;;15.60;90.60;;;;;;5091313;28;20051;-86
2023/07/22 11:27:14;;;;;;;0.70;0.70;;;15.60;93.20;;;;;;5093946;28;20529;-86
2023/07/22 11:29:40;;;;;;;0.50;0.50;;;15.50;95.70;;;;;;5098021;28;20383;-87
2023/07/22 11:32:07;;;;;;;0.93;0.90;;;15.50;97.60;;;;;;5081127;28;20048;-87
2023/07/22 11:34:33;;;;;;;0.90;0.70;;;15.40;99.60;;;;;;5074736;28;20040;-87
2023/07/22 11:36:59;;;;;;;1.45;0.65;;;15.30;99.90;;;;;;5081987;28;20055;-87
2023/07/22 11:39:26;;;;;;;0.80;0.80;;;15.30;99.90;;;;;;5100282;28;20051;-86
2023/07/22 11:41:52;;;;;;;2.05;0.80;;;15.30;99.90;;;;;;5074024;28;20486;-85
2023/07/22 11:44:20;;;;;;;0.45;0.40;;;15.30;99.90;;;;;;5054916;28;20047;-86
2023/07/22 11:46:49;;;;;;;0.60;0.60;;;15.20;99.90;;;;;;5100109;28;20048;-88
2023/07/22 11:49:29;;;;;;;1.10;1.00;;;15.20;99.90;;;;;;5100391;28;20068;-81
2023/07/22 11:51:56;;;;;;;0.60;0.60;;;15.30;99.90;;;;;;5101568;28;20490;-85
2023/07/22 11:54:22;;;;;;;0.47;0.47;;;15.20;99.90;;;;;;5102592;28;20051;-83
2023/07/22 11:56:48;;;;;;;0.75;0.63;;;15.20;99.90;;;;;;5105842;28;20051;-87
2023/07/22 11:59:14;;;;;;;0.60;0.50;;;15.20;99.90;;;;;;5101180;28;20047;-86
2023/07/22 12:01:42;;;;;;;1.23;0.80;;;15.20;99.90;;;;;;5103751;28;20119;-87
2023/07/22 12:04:12;;;;;;;0.90;0.80;;;15.20;99.90;;;;;;5102405;28;20047;-86
2023/07/22 12:06:38;;;;;;;0.68;0.68;;;15.20;99.90;;;;;;5084759;28;20066;-86
2023/07/22 12:09:04;;;;;;;0.88;0.60;;;15.20;99.90;;;;;;5084953;28;20478;-86
2023/07/22 12:11:33;;;;;;;0.90;0.80;;;15.20;99.90;;;;;;5081422;28;20482;-89
2023/07/22 12:14:08;;;;;;;0.70;0.70;;;15.20;99.90;;;;;;5085347;28;20047;-89
2023/07/22 12:16:36;;;;;;;1.10;0.90;;;15.20;99.90;;;;;;5099579;28;20048;-89
2023/07/22 12:19:03;;;;;;;1.02;0.77;;;15.20;99.90;;;;;;5097030;28;20039;-91
2023/07/22 12:21:29;;;;;;;1.00;0.75;;;15.30;99.90;;;;;;5083360;28;20428;-89
2023/07/22 12:23:54;;;;;;;1.13;1.02;;;15.30;99.90;;;;;;5081279;28;20036;-89
2023/07/22 12:26:20;;;;;;;0.57;0.57;;;15.40;99.90;;;;;;5064362;28;20073;-88
2023/07/22 12:28:46;;;;;;;1.60;0.73;;;15.40;99.90;;;;;;5081405;28;20105;-88
2023/07/22 12:31:12;;;;;;;1.75;0.88;;;15.40;99.90;;;;;;5085277;28;20048;-87
2023/07/22 12:33:38;;;;;;;1.02;0.93;;;15.40;99.90;;;;;;5103345;28;20043;-89
2023/07/22 12:36:04;;;;;;;1.13;0.82;;;15.40;99.90;;;;;;5079427;28;20070;-90
2023/07/22 12:38:31;;;;;;;0.40;0.40;;;15.40;99.90;;;;;;5065631;28;20075;-88
2023/07/22 12:40:56;;;;;;;0.35;0.35;;;15.40;99.90;;;;;;5096831;28;20113;-93
2023/07/22 12:43:22;;;;;;;1.25;1.02;;;15.40;99.90;;;;;;5048721;28;20040;-91
2023/07/22 12:45:48;;;;;;;0.47;0.47;;;15.40;99.90;;;;;;5064158;28;20044;-90
2023/07/22 12:48:17;;;;;;;0.97;0.67;;;15.40;99.90;;;;;;5084125;28;20040;-91
2023/07/22 12:50:43;;;;;;;0.90;0.90;;;15.40;99.90;;;;;;5084573;28;20154;-90
2023/07/22 12:53:09;;;;;;;1.25;0.80;;;15.30;99.90;;;;;;5099421;28;20095;-90
2023/07/22 12:55:35;;;;;;;1.00;0.65;;;15.30;99.90;;;;;;5068695;28;20495;-90
2023/07/22 12:58:01;;;;;;;1.08;0.98;;;15.30;99.90;;;;;;5101582;28;20039;-90
2023/07/22 13:00:27;;;;;;;1.65;1.02;;;15.20;99.90;;;;;;5083949;28;20051;-89